Time;durP1;ratioP1;P1;durP2;ratioP2;P2;SDS_P1;SDS_P2;PMS_P1;PMS_P2;Temp;Humidity;BMP_temperature;BMP_pressure;BME280_temperature;BME280_humidity;BME280_pressure;Samples;Min_cycle;Max_cycle;Signal;HPM_P1;HPM_P2
2022/03/26 00:02:08;;;;;;;39.10;26.10;;;11.00;79.10;;;;;;5070859;28;20991;-51
2022/03/26 00:04:35;;;;;;;32.80;24.60;;;11.00;79.30;;;;;;5071358;28;20977;-51
2022/03/26 00:07:02;;;;;;;36.17;24.90;;;11.00;79.30;;;;;;5070082;28;21139;-49
2022/03/26 00:09:29;;;;;;;46.90;29.43;;;11.00;79.40;;;;;;5071492;28;20443;-50
2022/03/26 00:11:56;;;;;;;40.20;24.77;;;10.90;79.50;;;;;;5071778;28;20435;-48
2022/03/26 00:14:23;;;;;;;35.13;24.10;;;10.90;79.70;;;;;;5071510;28;20544;-49
2022/03/26 00:16:50;;;;;;;37.50;25.00;;;10.90;79.70;;;;;;5071533;28;20437;-49
2022/03/26 00:19:17;;;;;;;43.20;26.60;;;10.90;79.80;;;;;;5071468;28;20430;-49
2022/03/26 00:21:45;;;;;;;35.63;28.07;;;10.90;80.00;;;;;;5071597;28;20440;-49
2022/03/26 00:24:11;;;;;;;36.10;25.50;;;10.90;80.20;;;;;;5071144;28;20540;-49
2022/03/26 00:26:38;;;;;;;34.73;25.70;;;10.90;80.20;;;;;;5071234;28;20777;-49
2022/03/26 00:29:04;;;;;;;31.80;24.33;;;10.80;80.30;;;;;;5071011;28;20430;-50
2022/03/26 00:31:33;;;;;;;34.57;23.10;;;10.80;80.40;;;;;;5069359;28;20461;-50
2022/03/26 00:34:01;;;;;;;35.53;23.93;;;10.80;80.60;;;;;;5072098;28;20449;-50
2022/03/26 00:36:27;;;;;;;38.93;24.53;;;10.80;80.70;;;;;;5075203;28;20950;-50
2022/03/26 00:38:54;;;;;;;34.40;24.00;;;10.80;80.70;;;;;;5075195;28;20473;-50
2022/03/26 00:41:22;;;;;;;34.00;23.90;;;10.80;80.80;;;;;;5075044;28;20430;-50
2022/03/26 00:43:49;;;;;;;36.00;24.47;;;10.70;80.10;;;;;;5074890;28;20469;-50
2022/03/26 00:46:16;;;;;;;39.30;23.60;;;10.80;80.90;;;;;;5074707;28;20891;-50
2022/03/26 00:48:43;;;;;;;36.43;24.00;;;10.70;80.80;;;;;;5074734;28;20495;-50
2022/03/26 00:51:11;;;;;;;34.90;21.97;;;10.70;81.00;;;;;;5074749;28;20866;-50
2022/03/26 00:53:37;;;;;;;30.57;22.23;;;10.60;81.10;;;;;;5074546;28;20441;-50
2022/03/26 00:56:05;;;;;;;29.90;22.03;;;10.70;81.30;;;;;;5074878;28;20433;-53
2022/03/26 00:58:31;;;;;;;29.97;21.47;;;10.60;81.50;;;;;;5074446;28;20469;-53
2022/03/26 01:00:58;;;;;;;31.30;21.70;;;10.50;81.50;;;;;;5074377;28;20483;-51
2022/03/26 01:03:25;;;;;;;33.50;22.60;;;10.60;81.50;;;;;;5074472;28;20437;-51
2022/03/26 01:05:51;;;;;;;33.67;22.47;;;10.60;81.80;;;;;;5074521;28;20459;-52
2022/03/26 01:08:19;;;;;;;29.00;21.30;;;10.60;82.00;;;;;;5074766;28;20441;-49
2022/03/26 01:10:46;;;;;;;36.63;22.70;;;10.60;82.10;;;;;;5074753;28;20430;-51
2022/03/26 01:13:14;;;;;;;42.40;22.57;;;10.60;82.50;;;;;;5074548;28;20423;-51
2022/03/26 01:15:41;;;;;;;33.83;23.00;;;10.50;82.50;;;;;;5074405;28;20822;-50
2022/03/26 01:18:08;;;;;;;33.20;21.27;;;10.50;82.90;;;;;;5073806;28;21000;-51
2022/03/26 01:20:34;;;;;;;32.67;22.37;;;10.40;82.80;;;;;;5074088;28;20440;-52
2022/03/26 01:23:01;;;;;;;33.83;23.33;;;10.50;83.00;;;;;;5074243;28;20529;-50
2022/03/26 01:25:29;;;;;;;37.67;23.90;;;10.40;83.00;;;;;;5074212;28;20449;-51
2022/03/26 01:27:55;;;;;;;33.33;23.80;;;10.40;83.50;;;;;;5074093;28;20437;-49
2022/03/26 01:30:24;;;;;;;33.80;23.07;;;10.40;84.00;;;;;;5074056;28;20441;-49
2022/03/26 01:32:52;;;;;;;34.23;23.33;;;10.30;84.00;;;;;;5073945;28;20938;-49
2022/03/26 01:35:19;;;;;;;36.50;23.17;;;10.30;83.80;;;;;;5063997;28;20459;-50
2022/03/26 01:37:46;;;;;;;32.53;23.97;;;10.30;83.80;;;;;;5053958;28;20493;-48
2022/03/26 01:40:13;;;;;;;41.77;26.83;;;10.30;83.80;;;;;;5053866;28;20439;-50
2022/03/26 01:42:41;;;;;;;32.90;25.60;;;10.30;84.20;;;;;;5053969;28;20920;-50
2022/03/26 01:45:11;;;;;;;33.00;24.10;;;10.20;84.20;;;;;;5053466;28;20461;-51
2022/03/26 01:47:38;;;;;;;33.63;24.10;;;10.20;84.50;;;;;;5053494;28;20438;-52
2022/03/26 01:50:05;;;;;;;41.30;24.60;;;10.20;84.80;;;;;;5053250;28;20923;-51
2022/03/26 01:52:32;;;;;;;36.13;25.07;;;10.10;84.80;;;;;;5054668;28;20452;-52
2022/03/26 01:54:59;;;;;;;36.50;26.23;;;10.10;85.00;;;;;;5073652;28;20454;-50
2022/03/26 01:57:25;;;;;;;39.13;25.10;;;10.10;85.10;;;;;;5073579;28;20910;-49
2022/03/26 01:59:53;;;;;;;30.57;23.23;;;10.10;85.30;;;;;;5073423;28;20430;-51
2022/03/26 02:02:20;;;;;;;33.70;24.80;;;10.10;85.50;;;;;;5071744;28;20960;-48
2022/03/26 02:04:47;;;;;;;35.97;24.23;;;10.10;85.70;;;;;;5073325;28;20993;-50
2022/03/26 02:07:13;;;;;;;38.00;24.87;;;10.00;85.60;;;;;;5073343;28;20933;-49
2022/03/26 02:09:40;;;;;;;35.07;25.03;;;10.00;85.80;;;;;;5073076;28;20430;-50
2022/03/26 02:12:23;;;;;;;36.67;25.27;;;10.00;86.00;;;;;;5073175;28;20430;-52
2022/03/26 02:14:50;;;;;;;44.30;24.90;;;9.90;87.30;;;;;;5073140;28;20465;-50
2022/03/26 02:17:18;;;;;;;34.93;24.40;;;10.00;86.40;;;;;;5072815;28;20438;-51
2022/03/26 02:19:48;;;;;;;39.37;23.70;;;10.00;86.40;;;;;;5072907;28;20771;-49
2022/03/26 02:22:15;;;;;;;38.87;24.17;;;9.90;87.70;;;;;;5072746;28;20438;-50
2022/03/26 02:24:42;;;;;;;41.63;26.40;;;9.90;88.00;;;;;;5073061;28;20484;-50
2022/03/26 02:27:09;;;;;;;38.20;25.17;;;9.90;88.20;;;;;;5072794;28;20438;-50
2022/03/26 02:29:36;;;;;;;41.97;25.70;;;9.90;88.30;;;;;;5072717;28;20426;-50
2022/03/26 02:32:03;;;;;;;36.50;26.47;;;9.80;88.20;;;;;;5072813;28;20466;-49
2022/03/26 02:34:30;;;;;;;47.70;26.07;;;9.80;88.20;;;;;;5072911;28;20460;-49
2022/03/26 02:36:58;;;;;;;38.13;25.73;;;9.80;88.40;;;;;;5072829;28;20971;-49
2022/03/26 02:39:25;;;;;;;38.10;24.73;;;9.80;88.50;;;;;;5072476;28;20488;-50
2022/03/26 02:41:52;;;;;;;44.80;25.17;;;9.80;88.80;;;;;;5072607;28;20966;-50
2022/03/26 02:44:19;;;;;;;43.30;26.40;;;9.80;88.90;;;;;;5072533;28;20450;-50
2022/03/26 02:46:46;;;;;;;42.87;25.63;;;9.80;89.10;;;;;;5072361;28;20487;-50
2022/03/26 02:49:13;;;;;;;45.47;26.00;;;9.80;89.30;;;;;;5071891;28;20434;-50
2022/03/26 02:51:39;;;;;;;42.13;26.10;;;9.80;89.50;;;;;;5072475;28;20430;-50
2022/03/26 02:54:18;;;;;;;43.63;27.43;;;9.70;89.50;;;;;;5072322;28;20454;-50
2022/03/26 02:56:45;;;;;;;38.37;25.37;;;9.70;89.60;;;;;;5071994;28;20472;-50
2022/03/26 02:59:11;;;;;;;38.80;25.93;;;9.70;89.70;;;;;;5071977;28;20866;-50
2022/03/26 03:01:38;;;;;;;40.97;26.83;;;9.70;89.80;;;;;;5072057;28;20470;-51
2022/03/26 03:04:05;;;;;;;37.20;26.10;;;9.70;90.10;;;;;;5072292;28;21008;-51
2022/03/26 03:06:32;;;;;;;39.10;25.70;;;9.70;90.20;;;;;;5072650;28;20949;-50
2022/03/26 03:08:59;;;;;;;43.40;26.97;;;9.70;90.30;;;;;;5072431;28;20430;-50
2022/03/26 03:11:27;;;;;;;35.90;24.80;;;9.60;90.40;;;;;;5072148;28;20472;-49
2022/03/26 03:13:54;;;;;;;42.00;25.47;;;9.70;90.70;;;;;;5072046;28;20910;-50
2022/03/26 03:16:20;;;;;;;39.30;25.90;;;9.60;90.60;;;;;;5071840;28;20422;-50
2022/03/26 03:18:47;;;;;;;40.07;26.20;;;9.60;90.80;;;;;;5071943;28;20480;-50
2022/03/26 03:21:13;;;;;;;38.03;27.07;;;9.50;90.70;;;;;;5072261;28;20429;-50
2022/03/26 03:23:40;;;;;;;41.53;27.03;;;9.60;90.70;;;;;;5071858;28;20813;-50
2022/03/26 03:26:07;;;;;;;41.90;26.47;;;9.50;91.00;;;;;;5071819;28;20434;-50
2022/03/26 03:28:35;;;;;;;36.00;25.33;;;9.50;91.00;;;;;;5071833;28;20452;-50
2022/03/26 03:31:01;;;;;;;35.13;24.63;;;9.50;91.30;;;;;;5071727;28;21016;-49
2022/03/26 03:33:28;;;;;;;36.90;26.33;;;9.50;91.40;;;;;;5071789;28;20426;-50
2022/03/26 03:35:55;;;;;;;44.33;27.57;;;9.50;91.60;;;;;;5071746;28;20454;-50
2022/03/26 03:38:22;;;;;;;36.93;24.80;;;9.50;91.70;;;;;;5071724;28;20473;-49
2022/03/26 03:40:48;;;;;;;40.63;26.70;;;9.40;92.00;;;;;;5072049;28;20433;-50
2022/03/26 03:43:15;;;;;;;44.87;27.77;;;9.40;92.00;;;;;;5071676;28;20945;-49
2022/03/26 03:45:43;;;;;;;39.90;27.40;;;9.40;92.20;;;;;;5071470;28;20850;-50
2022/03/26 03:48:10;;;;;;;42.87;27.70;;;9.40;92.30;;;;;;5071570;28;20826;-50
2022/03/26 03:50:36;;;;;;;36.20;25.93;;;9.30;92.70;;;;;;5071528;28;20426;-50
2022/03/26 03:53:03;;;;;;;33.33;25.20;;;9.30;92.90;;;;;;5071734;28;20434;-50
2022/03/26 03:55:30;;;;;;;46.87;25.57;;;8.50;92.70;;;;;;5072298;28;20456;-49
2022/03/26 03:57:56;;;;;;;38.00;26.33;;;9.30;93.30;;;;;;5071872;28;20438;-49
2022/03/26 04:00:23;;;;;;;43.40;28.50;;;9.20;93.30;;;;;;5071425;28;20918;-50
2022/03/26 04:02:53;;;;;;;38.20;26.23;;;9.20;93.50;;;;;;5071542;28;20947;-49
2022/03/26 04:05:20;;;;;;;41.67;26.57;;;9.20;93.70;;;;;;5071522;28;20516;-49
2022/03/26 04:07:47;;;;;;;40.13;27.13;;;9.10;93.70;;;;;;5071356;28;20457;-50
2022/03/26 04:10:14;;;;;;;39.23;25.07;;;9.10;93.60;;;;;;5075006;28;20442;-50
2022/03/26 04:12:42;;;;;;;45.33;26.73;;;9.10;93.60;;;;;;5075669;28;20449;-50
2022/03/26 04:15:10;;;;;;;40.90;27.80;;;9.10;94.00;;;;;;5075680;28;20460;-49
2022/03/26 04:17:37;;;;;;;42.60;27.47;;;9.10;94.00;;;;;;5075211;28;20430;-50
2022/03/26 04:20:08;;;;;;;38.57;26.70;;;9.00;94.30;;;;;;5074098;28;20472;-50
2022/03/26 04:22:35;;;;;;;42.40;28.13;;;9.00;94.60;;;;;;5075571;28;20422;-49
2022/03/26 04:25:02;;;;;;;44.90;26.47;;;9.00;94.70;;;;;;5075661;28;20949;-50
2022/03/26 04:27:29;;;;;;;39.03;28.20;;;9.00;94.70;;;;;;5075378;28;20444;-50
2022/03/26 04:29:55;;;;;;;38.07;26.93;;;8.90;95.10;;;;;;5075074;28;20841;-50
2022/03/26 04:32:22;;;;;;;51.97;30.03;;;8.90;95.30;;;;;;5075237;28;20449;-50
2022/03/26 04:34:49;;;;;;;40.57;27.07;;;8.80;95.20;;;;;;5075148;28;20458;-49
2022/03/26 04:37:17;;;;;;;40.33;28.73;;;8.90;95.40;;;;;;5075022;28;20437;-50
2022/03/26 04:39:43;;;;;;;39.87;27.00;;;8.90;95.50;;;;;;5075197;28;20830;-50
2022/03/26 04:42:10;;;;;;;46.07;27.10;;;8.90;95.60;;;;;;5075167;28;20432;-50
2022/03/26 04:44:37;;;;;;;41.20;28.17;;;8.90;95.80;;;;;;5074858;28;20488;-50
2022/03/26 04:47:04;;;;;;;38.80;26.60;;;8.80;95.90;;;;;;5075375;28;20889;-50
2022/03/26 04:49:30;;;;;;;38.40;26.40;;;8.80;96.40;;;;;;5074842;28;20434;-50
2022/03/26 04:51:57;;;;;;;41.57;28.63;;;8.80;96.30;;;;;;5075060;28;20521;-50
2022/03/26 04:54:25;;;;;;;41.73;28.90;;;8.80;96.80;;;;;;5074797;28;20435;-48
2022/03/26 04:56:52;;;;;;;46.70;29.23;;;8.80;96.90;;;;;;5074851;28;20865;-48
2022/03/26 04:59:18;;;;;;;49.43;32.40;;;8.80;96.80;;;;;;5074882;28;20483;-49
2022/03/26 05:01:47;;;;;;;48.63;31.13;;;8.80;97.00;;;;;;5074799;28;20943;-49
2022/03/26 05:04:14;;;;;;;48.77;30.60;;;8.70;97.30;;;;;;5074778;28;20450;-50
2022/03/26 05:06:41;;;;;;;47.13;30.23;;;8.60;97.30;;;;;;5075095;28;20845;-49
2022/03/26 05:09:07;;;;;;;49.60;31.33;;;8.70;97.40;;;;;;5074736;28;20430;-50
2022/03/26 05:11:36;;;;;;;46.27;30.27;;;8.70;97.50;;;;;;5074364;28;20433;-50
2022/03/26 05:14:03;;;;;;;49.27;34.53;;;8.70;97.60;;;;;;5075299;28;20980;-52
2022/03/26 05:16:30;;;;;;;49.50;33.53;;;8.70;97.90;;;;;;5074378;28;20433;-52
2022/03/26 05:18:56;;;;;;;52.27;32.00;;;8.70;98.10;;;;;;5073839;28;20469;-52
2022/03/26 05:21:23;;;;;;;57.83;34.33;;;8.70;98.20;;;;;;5073764;28;20407;-52
2022/03/26 05:23:50;;;;;;;50.43;32.80;;;8.70;98.20;;;;;;5074424;28;20956;-51
2022/03/26 05:26:18;;;;;;;51.83;34.80;;;8.70;98.20;;;;;;5074276;28;20474;-51
2022/03/26 05:28:46;;;;;;;54.13;33.17;;;8.70;98.30;;;;;;5073885;28;20438;-51
2022/03/26 05:31:13;;;;;;;55.13;33.60;;;8.80;98.30;;;;;;5072557;28;20926;-52
2022/03/26 05:33:40;;;;;;;59.83;33.70;;;8.80;98.40;;;;;;5073869;28;20445;-51
2022/03/26 05:36:07;;;;;;;46.87;31.77;;;8.80;98.60;;;;;;5073832;28;20433;-50
2022/03/26 05:38:34;;;;;;;53.37;35.07;;;9.40;99.00;;;;;;5073710;28;20452;-51
2022/03/26 05:41:00;;;;;;;48.93;35.13;;;8.90;98.60;;;;;;5074143;28;20436;-50
2022/03/26 05:43:27;;;;;;;49.50;34.83;;;8.80;98.90;;;;;;5073971;28;20429;-50
2022/03/26 05:45:55;;;;;;;54.60;32.30;;;8.90;98.80;;;;;;5074001;28;20452;-51
2022/03/26 05:48:22;;;;;;;56.27;33.07;;;8.90;98.80;;;;;;5073793;28;20801;-51
2022/03/26 05:50:48;;;;;;;53.47;33.10;;;8.90;98.80;;;;;;5073372;28;20424;-51
2022/03/26 05:53:15;;;;;;;56.13;34.23;;;9.00;99.00;;;;;;5073572;28;20434;-51
2022/03/26 05:55:41;;;;;;;55.43;34.83;;;9.00;99.00;;;;;;5073612;28;20449;-51
2022/03/26 05:58:08;;;;;;;52.30;35.43;;;9.10;99.20;;;;;;5073412;28;20437;-51
2022/03/26 06:00:35;;;;;;;51.20;34.97;;;9.20;99.10;;;;;;5072953;28;20481;-51
2022/03/26 06:03:03;;;;;;;49.77;33.40;;;9.10;98.80;;;;;;5073430;28;20403;-51
2022/03/26 06:05:30;;;;;;;57.93;35.00;;;9.40;98.80;;;;;;5073196;28;20458;-51
2022/03/26 06:07:57;;;;;;;48.87;33.43;;;9.60;98.70;;;;;;5073278;28;20463;-51
2022/03/26 06:10:24;;;;;;;47.60;33.07;;;9.60;98.50;;;;;;5072687;28;20954;-50
2022/03/26 06:12:50;;;;;;;52.17;32.53;;;9.70;98.40;;;;;;5073178;28;20426;-51
2022/03/26 06:15:17;;;;;;;54.90;34.83;;;9.80;98.20;;;;;;5072748;28;20525;-51
2022/03/26 06:17:46;;;;;;;45.13;31.30;;;9.90;98.20;;;;;;5072874;28;20426;-51
2022/03/26 06:20:14;;;;;;;50.17;32.27;;;10.00;97.50;;;;;;5072908;28;20477;-51
2022/03/26 06:22:40;;;;;;;48.50;32.00;;;10.00;97.30;;;;;;5072938;28;20425;-51
2022/03/26 06:25:08;;;;;;;50.63;31.00;;;10.00;97.10;;;;;;5072884;28;20465;-51
2022/03/26 06:27:34;;;;;;;42.37;30.50;;;10.10;97.10;;;;;;5072970;28;20786;-52
2022/03/26 06:30:01;;;;;;;51.73;33.00;;;10.20;97.00;;;;;;5073103;28;20436;-52
2022/03/26 06:32:28;;;;;;;45.53;30.50;;;10.20;97.00;;;;;;5071722;28;20788;-52
2022/03/26 06:34:54;;;;;;;46.17;30.47;;;10.80;97.10;;;;;;5072590;28;20466;-51
2022/03/26 06:37:22;;;;;;;51.70;33.43;;;10.20;96.70;;;;;;5072682;28;20437;-51
2022/03/26 06:39:49;;;;;;;47.33;31.67;;;10.30;96.70;;;;;;5072453;28;20474;-52
2022/03/26 06:42:16;;;;;;;46.53;31.77;;;10.30;96.70;;;;;;5072478;28;20901;-51
2022/03/26 06:44:43;;;;;;;52.20;34.07;;;10.30;96.60;;;;;;5072295;28;20457;-52
2022/03/26 06:47:09;;;;;;;42.27;29.97;;;10.30;96.50;;;;;;5071165;28;20440;-52
2022/03/26 06:49:36;;;;;;;47.37;33.00;;;10.30;96.60;;;;;;5072224;28;20444;-51
2022/03/26 06:52:04;;;;;;;43.77;31.87;;;10.30;96.50;;;;;;5072609;28;20764;-52
2022/03/26 06:54:32;;;;;;;54.67;33.27;;;10.40;96.40;;;;;;5072245;28;20639;-51
2022/03/26 06:56:58;;;;;;;45.40;31.70;;;10.40;96.40;;;;;;5072350;28;20434;-52
2022/03/26 06:59:25;;;;;;;43.20;31.60;;;10.40;96.40;;;;;;5072169;28;20480;-51
2022/03/26 07:01:52;;;;;;;54.80;32.80;;;10.40;96.30;;;;;;5072698;28;20430;-51
2022/03/26 07:04:19;;;;;;;50.77;32.17;;;10.50;96.40;;;;;;5072494;28;20500;-51
2022/03/26 07:06:45;;;;;;;41.77;29.37;;;10.50;96.50;;;;;;5072687;28;20434;-52
2022/03/26 07:09:12;;;;;;;46.93;32.57;;;10.60;96.10;;;;;;5072144;28;20437;-51
2022/03/26 07:11:40;;;;;;;55.47;33.17;;;10.60;96.00;;;;;;5072110;28;20441;-51
2022/03/26 07:14:06;;;;;;;45.00;31.90;;;10.60;95.80;;;;;;5071555;28;20530;-51
2022/03/26 07:16:33;;;;;;;49.13;31.63;;;10.70;95.70;;;;;;5072024;28;20434;-51
2022/03/26 07:18:59;;;;;;;48.63;31.20;;;10.70;95.50;;;;;;5071593;28;20831;-52
2022/03/26 07:21:26;;;;;;;44.00;30.43;;;10.70;95.50;;;;;;5071983;28;20844;-51
2022/03/26 07:23:53;;;;;;;45.13;31.50;;;10.80;95.40;;;;;;5071663;28;20442;-51
2022/03/26 07:26:19;;;;;;;41.67;30.63;;;10.80;95.40;;;;;;5071547;28;20404;-51
2022/03/26 07:28:48;;;;;;;42.57;31.13;;;10.80;95.30;;;;;;5071279;28;20891;-52
2022/03/26 07:31:14;;;;;;;50.80;31.70;;;10.80;95.20;;;;;;5072073;28;20778;-51
2022/03/26 07:33:41;;;;;;;44.47;30.77;;;10.90;95.20;;;;;;5071820;28;20434;-52
2022/03/26 07:36:08;;;;;;;43.30;29.60;;;10.90;95.10;;;;;;5071801;28;20441;-51
2022/03/26 07:38:34;;;;;;;48.00;32.60;;;10.90;95.10;;;;;;5071246;28;20437;-52
2022/03/26 07:41:01;;;;;;;46.33;30.07;;;10.90;95.10;;;;;;5071807;28;20969;-52
2022/03/26 07:43:27;;;;;;;50.60;31.10;;;11.00;95.20;;;;;;5071572;28;20437;-50
2022/03/26 07:45:55;;;;;;;45.23;30.10;;;11.00;95.10;;;;;;5071877;28;20460;-51
2022/03/26 07:48:22;;;;;;;45.10;31.13;;;11.00;95.20;;;;;;5071779;28;20429;-51
2022/03/26 07:50:49;;;;;;;43.13;31.10;;;11.10;95.10;;;;;;5071430;28;20441;-51
2022/03/26 07:53:16;;;;;;;40.77;29.47;;;11.10;95.10;;;;;;5071391;28;20441;-52
2022/03/26 07:55:43;;;;;;;42.60;27.83;;;11.20;95.20;;;;;;5071416;28;20470;-52
2022/03/26 07:58:10;;;;;;;43.17;30.40;;;11.20;95.10;;;;;;5071670;28;20430;-52
2022/03/26 08:00:37;;;;;;;44.07;30.27;;;11.30;95.20;;;;;;5070642;28;20504;-51
2022/03/26 08:03:05;;;;;;;43.20;30.33;;;11.30;95.20;;;;;;5071301;28;20434;-52
2022/03/26 08:05:32;;;;;;;41.30;30.07;;;11.40;95.20;;;;;;5071311;28;20465;-52
2022/03/26 08:07:58;;;;;;;48.97;27.70;;;11.50;95.20;;;;;;5071379;28;20432;-51
2022/03/26 08:10:25;;;;;;;41.27;27.30;;;11.50;95.10;;;;;;5071385;28;20426;-51
2022/03/26 08:12:52;;;;;;;39.73;27.63;;;11.60;95.10;;;;;;5071420;28;20424;-51
2022/03/26 08:15:18;;;;;;;39.83;27.80;;;11.70;95.10;;;;;;5071176;28;20466;-51
2022/03/26 08:17:45;;;;;;;38.70;26.63;;;11.70;95.20;;;;;;5071275;28;20921;-52
2022/03/26 08:20:14;;;;;;;39.73;27.10;;;11.80;95.20;;;;;;5070699;28;20475;-52
2022/03/26 08:22:41;;;;;;;39.90;25.00;;;11.90;95.20;;;;;;5071150;28;20430;-52
2022/03/26 08:25:10;;;;;;;32.13;23.57;;;11.90;95.00;;;;;;5071234;28;20473;-52
2022/03/26 08:27:37;;;;;;;37.50;24.70;;;12.00;94.90;;;;;;5071085;28;20464;-51
2022/03/26 08:30:04;;;;;;;33.07;24.37;;;12.10;94.90;;;;;;5070768;28;20440;-51
2022/03/26 08:32:31;;;;;;;35.90;23.20;;;12.20;94.80;;;;;;5071430;28;20429;-51
2022/03/26 08:34:57;;;;;;;46.63;24.60;;;12.30;94.60;;;;;;5070751;28;21010;-52
2022/03/26 08:37:26;;;;;;;34.27;22.53;;;12.40;94.50;;;;;;5070929;28;20428;-51
2022/03/26 08:39:52;;;;;;;31.27;22.20;;;12.50;94.30;;;;;;5070428;28;20844;-52
2022/03/26 08:42:19;;;;;;;32.10;22.37;;;12.70;94.20;;;;;;5070896;28;20430;-51
2022/03/26 08:44:46;;;;;;;29.20;22.10;;;13.00;94.00;;;;;;5070758;28;20456;-52
2022/03/26 08:47:13;;;;;;;32.40;21.00;;;13.10;93.70;;;;;;5070957;28;20459;-51
2022/03/26 08:49:40;;;;;;;34.10;21.90;;;13.30;93.50;;;;;;5070087;28;20450;-51
2022/03/26 08:52:07;;;;;;;27.97;20.50;;;13.30;93.00;;;;;;5070996;28;20480;-52
2022/03/26 08:54:35;;;;;;;30.20;20.57;;;13.40;92.90;;;;;;5071154;28;20500;-52
2022/03/26 08:57:02;;;;;;;31.47;22.90;;;13.60;92.90;;;;;;5074218;28;20832;-51
2022/03/26 08:59:28;;;;;;;30.03;22.60;;;13.60;92.70;;;;;;5073427;28;20485;-52
2022/03/26 09:01:55;;;;;;;29.47;22.27;;;13.60;92.80;;;;;;5074260;28;20468;-52
2022/03/26 09:04:22;;;;;;;30.70;21.00;;;13.60;92.50;;;;;;5073899;28;20581;-51
2022/03/26 09:06:50;;;;;;;29.10;23.10;;;13.70;92.50;;;;;;5073965;28;20445;-51
2022/03/26 09:09:17;;;;;;;28.90;21.37;;;13.70;92.50;;;;;;5073842;28;20937;-51
2022/03/26 09:11:44;;;;;;;24.60;19.57;;;13.70;92.40;;;;;;5074031;28;20436;-51
2022/03/26 09:14:12;;;;;;;20.50;16.17;;;13.80;92.60;;;;;;5073859;28;20473;-52
2022/03/26 09:16:39;;;;;;;23.50;15.87;;;13.80;92.70;;;;;;5073797;28;20489;-52
2022/03/26 09:19:06;;;;;;;20.70;15.93;;;13.90;92.80;;;;;;5073738;28;20440;-52
2022/03/26 09:21:33;;;;;;;21.23;15.13;;;14.00;92.70;;;;;;5073825;28;20491;-52
2022/03/26 09:23:59;;;;;;;18.60;14.60;;;14.10;92.70;;;;;;5073938;28;20807;-52
2022/03/26 09:26:26;;;;;;;20.50;14.80;;;14.20;92.80;;;;;;5074017;28;21064;-52
2022/03/26 09:28:54;;;;;;;20.10;14.73;;;14.30;92.70;;;;;;5073448;28;20447;-52
2022/03/26 09:31:21;;;;;;;23.50;16.13;;;14.30;92.60;;;;;;5073547;28;20427;-51
2022/03/26 09:33:48;;;;;;;25.57;17.73;;;14.30;92.60;;;;;;5073975;28;20938;-52
2022/03/26 09:36:14;;;;;;;20.50;15.37;;;14.20;92.70;;;;;;5073693;28;20450;-51
2022/03/26 09:38:41;;;;;;;20.37;16.00;;;14.20;92.80;;;;;;5073588;28;20633;-52
2022/03/26 09:41:09;;;;;;;23.53;17.50;;;14.30;92.80;;;;;;5073645;28;20832;-52
2022/03/26 09:43:36;;;;;;;26.40;17.43;;;14.30;92.70;;;;;;5073642;28;20428;-52
2022/03/26 09:46:04;;;;;;;24.13;18.60;;;14.40;92.80;;;;;;5073022;28;20498;-52
2022/03/26 09:48:31;;;;;;;22.13;17.33;;;14.40;92.60;;;;;;5073201;28;20464;-51
2022/03/26 09:50:59;;;;;;;26.60;18.47;;;14.50;92.50;;;;;;5073358;28;20492;-52
2022/03/26 09:53:27;;;;;;;27.73;19.47;;;14.60;92.50;;;;;;5071839;28;20442;-51
2022/03/26 09:55:54;;;;;;;28.73;20.07;;;14.70;92.30;;;;;;5073520;28;20461;-51
2022/03/26 09:58:20;;;;;;;24.47;19.50;;;14.70;92.10;;;;;;5071660;28;20523;-51
2022/03/26 10:00:47;;;;;;;24.50;19.37;;;14.80;92.00;;;;;;5072550;28;20996;-51
2022/03/26 10:03:18;;;;;;;24.67;19.80;;;14.80;91.90;;;;;;5073022;28;20620;-51
2022/03/26 10:05:46;;;;;;;28.13;20.67;;;14.80;91.90;;;;;;5072779;28;20818;-50
2022/03/26 10:08:21;;;;;;;30.13;21.60;;;14.90;91.90;;;;;;5072555;28;20428;-52
2022/03/26 10:10:49;;;;;;;23.97;20.00;;;14.90;91.70;;;;;;5072585;28;20429;-51
2022/03/26 10:13:34;;;;;;;28.10;20.90;;;14.90;91.60;;;;;;5072638;28;20493;-52
2022/03/26 10:16:01;;;;;;;27.70;20.73;;;14.90;91.60;;;;;;5072126;28;20468;-51
2022/03/26 10:18:35;;;;;;;27.70;22.00;;;15.00;91.60;;;;;;5072479;28;20430;-52
2022/03/26 10:21:03;;;;;;;31.63;20.57;;;15.10;91.70;;;;;;5072470;28;20505;-52
2022/03/26 10:23:30;;;;;;;25.40;20.00;;;15.00;91.80;;;;;;5072470;28;20452;-51
2022/03/26 10:26:08;;;;;;;25.40;20.03;;;15.00;92.00;;;;;;5072376;28;20511;-52
2022/03/26 10:28:35;;;;;;;26.77;19.40;;;15.10;92.00;;;;;;5072238;28;20465;-53
2022/03/26 10:34:08;;;;;;;29.07;19.77;;;15.30;91.80;;;;;;5072483;28;20519;-53
2022/03/26 10:36:39;;;;;;;30.37;19.57;;;15.30;91.90;;;;;;5052412;28;20422;-52
2022/03/26 10:39:07;;;;;;;27.13;20.43;;;15.30;92.00;;;;;;5052116;28;20443;-52
2022/03/26 10:41:34;;;;;;;24.10;19.10;;;15.30;92.10;;;;;;5052286;28;20482;-52
2022/03/26 10:44:10;;;;;;;22.53;18.97;;;15.40;92.20;;;;;;5052153;28;20489;-52
2022/03/26 10:46:48;;;;;;;26.60;20.53;;;15.40;92.10;;;;;;5051889;28;20461;-51
2022/03/26 10:49:27;;;;;;;24.50;20.10;;;15.50;92.00;;;;;;5052079;28;20465;-52
2022/03/26 10:51:54;;;;;;;29.10;21.00;;;15.60;92.30;;;;;;5052043;28;20437;-52
2022/03/26 10:54:28;;;;;;;27.30;22.30;;;15.60;92.10;;;;;;5067778;28;20455;-51
2022/03/26 10:56:57;;;;;;;29.53;22.10;;;15.70;91.70;;;;;;5072106;28;20444;-52
2022/03/26 10:59:24;;;;;;;28.03;20.50;;;15.70;91.60;;;;;;5071932;28;20426;-52
2022/03/26 11:01:50;;;;;;;27.03;19.90;;;15.70;91.70;;;;;;5071972;28;20930;-53
2022/03/26 11:04:19;;;;;;;30.97;20.73;;;15.60;91.70;;;;;;5072057;28;20473;-53
2022/03/26 11:06:48;;;;;;;27.33;22.67;;;15.70;91.70;;;;;;5071833;28;20426;-53
2022/03/26 11:09:16;;;;;;;35.23;21.87;;;15.70;91.70;;;;;;5071359;28;21001;-52
2022/03/26 11:11:45;;;;;;;28.80;21.83;;;15.80;91.60;;;;;;5071775;28;20454;-53
2022/03/26 11:14:14;;;;;;;31.30;23.40;;;15.80;91.40;;;;;;5072060;28;20481;-51
2022/03/26 11:16:57;;;;;;;38.30;25.60;;;15.90;91.50;;;;;;5071734;28;20448;-52
2022/03/26 11:19:33;;;;;;;30.33;23.20;;;15.90;91.40;;;;;;5071456;28;20429;-51
2022/03/26 11:22:22;;;;;;;31.77;23.33;;;16.00;91.40;;;;;;5071710;28;20482;-50
2022/03/26 11:25:27;;;;;;;33.07;23.67;;;16.00;91.20;;;;;;5071802;28;20458;-51
2022/03/26 11:28:08;;;;;;;30.33;23.30;;;16.00;91.20;;;;;;5072027;28;20432;-52
2022/03/26 11:30:45;;;;;;;28.00;22.93;;;15.90;91.30;;;;;;5071685;28;20436;-51
2022/03/26 11:33:14;;;;;;;34.03;21.60;;;16.00;91.40;;;;;;5071580;28;20454;-50
2022/03/26 11:35:55;;;;;;;29.13;23.00;;;16.10;91.40;;;;;;5058406;28;21154;-51
2022/03/26 11:38:23;;;;;;;34.07;25.10;;;16.10;91.30;;;;;;5051751;28;20424;-51
2022/03/26 11:40:53;;;;;;;31.50;22.37;;;16.10;91.20;;;;;;5051155;28;20482;-52
2022/03/26 11:43:40;;;;;;;32.33;24.23;;;16.00;91.30;;;;;;5051478;28;20443;-51
2022/03/26 11:51:40;;;;;;;32.70;24.67;;;16.10;91.40;;;;;;5050378;28;20431;-51
2022/03/26 11:54:12;;;;;;;30.60;22.53;;;16.00;91.50;;;;;;5063561;28;20509;-51
2022/03/26 11:56:40;;;;;;;33.27;24.10;;;15.90;91.70;;;;;;5071508;28;20880;-51
2022/03/26 11:59:08;;;;;;;34.70;24.50;;;15.90;91.90;;;;;;5070947;28;20426;-50
2022/03/26 12:01:36;;;;;;;32.50;24.93;;;15.70;91.90;;;;;;5070901;28;20473;-51
2022/03/26 12:04:10;;;;;;;38.40;27.43;;;15.50;92.20;;;;;;5071199;28;20445;-50
2022/03/26 12:06:44;;;;;;;35.20;25.57;;;15.50;92.50;;;;;;5070990;28;20441;-51
2022/03/26 12:09:12;;;;;;;39.17;28.30;;;15.50;92.50;;;;;;5071671;28;20526;-51
2022/03/26 12:11:59;;;;;;;40.73;27.10;;;15.30;92.60;;;;;;5071532;28;20433;-51
2022/03/26 12:14:27;;;;;;;36.60;27.67;;;15.30;92.90;;;;;;5071843;28;20485;-50
2022/03/26 12:16:55;;;;;;;35.53;28.23;;;15.30;92.80;;;;;;5070898;28;20438;-51
2022/03/26 12:19:41;;;;;;;37.43;27.10;;;15.20;92.90;;;;;;5070516;28;20532;-50
2022/03/26 12:22:23;;;;;;;43.37;30.30;;;15.20;92.90;;;;;;5070741;28;20553;-51
2022/03/26 12:24:50;;;;;;;38.90;29.73;;;15.20;93.10;;;;;;5070380;28;20536;-51
2022/03/26 12:27:17;;;;;;;40.83;29.23;;;15.20;93.00;;;;;;5070589;28;20438;-51
2022/03/26 12:29:45;;;;;;;39.60;30.40;;;15.20;93.00;;;;;;5071467;28;20433;-51
2022/03/26 12:32:12;;;;;;;41.03;30.47;;;15.20;93.10;;;;;;5074751;28;20437;-51
2022/03/26 12:34:53;;;;;;;37.73;27.97;;;15.10;93.30;;;;;;5074259;28;20458;-51
2022/03/26 12:37:21;;;;;;;37.00;29.70;;;15.10;93.50;;;;;;5074401;28;20941;-52
2022/03/26 12:39:48;;;;;;;39.10;28.40;;;15.10;93.50;;;;;;5074291;28;20425;-51
2022/03/26 12:42:15;;;;;;;43.40;30.20;;;15.10;93.60;;;;;;5074118;28;20456;-51
2022/03/26 12:44:41;;;;;;;41.03;30.37;;;15.10;93.60;;;;;;5074414;28;20475;-51